Time;durP1;ratioP1;P1;durP2;ratioP2;P2;SDS_P1;SDS_P2;PMS_P1;PMS_P2;Temp;Humidity;BMP_temperature;BMP_pressure;BME280_temperature;BME280_humidity;BME280_pressure;Samples;Min_cycle;Max_cycle;Signal;HPM_P1;HPM_P2
2023/07/23 00:02:03;;;;;;;14.55;11.85;;;;;;;15.01;100.00;100456.06;5004983;28;20037;-85
2023/07/23 00:04:32;;;;;;;17.27;13.13;;;;;;;15.02;100.00;100452.53;5002474;28;20033;-88
2023/07/23 00:06:58;;;;;;;14.55;11.10;;;;;;;15.01;100.00;100445.50;5004693;28;20041;-87
2023/07/23 00:09:25;;;;;;;13.88;10.80;;;;;;;15.01;100.00;100448.16;5000888;28;20054;-85
2023/07/23 00:11:52;;;;;;;14.60;10.35;;;;;;;14.99;100.00;100440.28;5002242;28;20044;-86
2023/07/23 00:14:19;;;;;;;16.80;10.93;;;;;;;14.96;100.00;100435.09;5001367;28;20148;-87
2023/07/23 00:16:46;;;;;;;11.52;9.55;;;;;;;14.96;100.00;100431.63;5006813;28;20421;-87
2023/07/23 00:19:18;;;;;;;14.43;10.27;;;;;;;14.96;100.00;100429.81;4987977;28;20045;-87
2023/07/23 00:21:47;;;;;;;13.90;10.18;;;;;;;14.95;100.00;100428.09;5004235;28;20172;-86
2023/07/23 00:24:19;;;;;;;13.38;10.48;;;;;;;14.93;100.00;100429.06;4994717;28;20124;-85
2023/07/23 00:26:47;;;;;;;16.48;10.18;;;;;;;14.92;100.00;100424.72;5001055;28;20165;-86
2023/07/23 00:29:14;;;;;;;10.85;8.85;;;;;;;14.89;100.00;100421.25;5003039;28;20037;-86
2023/07/23 00:31:40;;;;;;;14.27;9.02;;;;;;;14.85;100.00;100419.63;4999764;28;20050;-87
2023/07/23 00:34:09;;;;;;;12.20;8.75;;;;;;;14.85;100.00;100411.72;4967330;28;20061;-89
2023/07/23 00:36:35;;;;;;;11.70;7.47;;;;;;;14.86;100.00;100405.53;4980657;28;20229;-89
2023/07/23 00:39:03;;;;;;;13.52;8.82;;;;;;;14.84;100.00;100403.88;4999199;28;20041;-90
2023/07/23 00:41:30;;;;;;;9.38;8.13;;;;;;;14.80;100.00;100400.44;4984806;28;20054;-88
2023/07/23 00:43:56;;;;;;;10.93;8.05;;;;;;;14.78;100.00;100394.34;4986711;28;20553;-89
2023/07/23 00:46:23;;;;;;;13.65;9.30;;;;;;;14.76;100.00;100390.91;4995016;28;20049;-86
2023/07/23 00:48:50;;;;;;;10.63;7.90;;;;;;;14.75;100.00;100386.56;5002333;28;20092;-86
2023/07/23 00:51:17;;;;;;;11.15;8.25;;;;;;;14.75;100.00;100383.91;5004778;28;20503;-87
2023/07/23 00:53:45;;;;;;;9.20;7.82;;;;;;;14.75;100.00;100380.44;5003504;28;20045;-86
2023/07/23 00:56:13;;;;;;;12.35;8.20;;;;;;;14.74;100.00;100381.34;4987472;28;20042;-87
2023/07/23 00:58:40;;;;;;;9.43;7.20;;;;;;;14.75;100.00;100373.38;4987623;28;20042;-85
2023/07/23 01:01:08;;;;;;;11.68;7.70;;;;;;;14.74;100.00;100361.09;4980722;28;20050;-88
2023/07/23 01:03:36;;;;;;;9.23;8.00;;;;;;;14.75;100.00;100359.34;5008243;28;20045;-86
2023/07/23 01:06:05;;;;;;;10.60;7.47;;;;;;;14.75;100.00;100357.56;4988755;28;20104;-84
2023/07/23 01:08:35;;;;;;;11.88;6.88;;;;;;;14.75;100.00;100356.72;5001439;28;20057;-87
2023/07/23 01:11:03;;;;;;;8.75;6.40;;;;;;;14.76;100.00;100356.66;5008403;28;20056;-85
2023/07/23 01:13:29;;;;;;;7.93;6.68;;;;;;;14.75;100.00;100354.09;5008055;28;20041;-87
2023/07/23 01:15:57;;;;;;;10.52;6.75;;;;;;;14.76;100.00;100351.41;4995049;28;20046;-86
2023/07/23 01:18:25;;;;;;;11.48;6.40;;;;;;;14.76;100.00;100345.25;4995097;28;20088;-86
2023/07/23 01:20:52;;;;;;;7.07;6.40;;;;;;;14.78;100.00;100346.06;5009498;28;20038;-86
2023/07/23 01:23:19;;;;;;;9.73;6.93;;;;;;;14.77;100.00;100342.59;5011899;28;20042;-87
2023/07/23 01:25:45;;;;;;;6.82;5.90;;;;;;;14.78;100.00;100344.28;4995469;28;20061;-87
2023/07/23 01:28:12;;;;;;;10.15;5.88;;;;;;;14.78;100.00;100339.03;5008311;28;20041;-85
2023/07/23 01:30:39;;;;;;;8.60;6.32;;;;;;;14.80;100.00;100339.00;5009045;28;20198;-86
2023/07/23 01:33:06;;;;;;;8.55;5.93;;;;;;;14.79;100.00;100334.63;4991302;28;20127;-86
2023/07/23 01:35:35;;;;;;;7.68;6.00;;;;;;;14.79;100.00;100332.84;5008769;28;20034;-85
2023/07/23 01:38:03;;;;;;;6.55;5.35;;;;;;;14.82;100.00;100330.13;5009252;28;22287;-87
2023/07/23 01:40:30;;;;;;;8.30;6.53;;;;;;;14.82;100.00;100338.03;4995268;28;20145;-87
2023/07/23 01:42:57;;;;;;;8.90;6.32;;;;;;;14.84;100.00;100330.94;4989724;28;20045;-86
2023/07/23 01:45:24;;;;;;;8.73;6.82;;;;;;;14.84;100.00;100330.94;4991938;28;20137;-85
2023/07/23 01:47:52;;;;;;;9.88;6.55;;;;;;;14.86;100.00;100328.25;5007512;28;20149;-86
2023/07/23 01:50:18;;;;;;;8.38;6.65;;;;;;;14.83;100.00;100308.13;5016779;28;20944;-86
2023/07/23 01:52:45;;;;;;;6.82;6.15;;;;;;;14.82;100.00;100308.16;5009752;28;20053;-89
2023/07/23 01:55:12;;;;;;;6.18;5.50;;;;;;;14.81;100.00;100311.72;5008054;28;20112;-87
2023/07/23 01:57:40;;;;;;;7.38;6.32;;;;;;;14.82;100.00;100314.31;5010952;28;20108;-88
2023/07/23 02:00:08;;;;;;;13.32;6.35;;;;;;;14.79;100.00;100303.84;5008390;28;20034;-86
2023/07/23 02:02:35;;;;;;;7.47;5.80;;;;;;;14.80;100.00;100305.59;5007407;28;22216;-87
2023/07/23 02:05:02;;;;;;;8.02;6.07;;;;;;;14.78;100.00;100298.66;5010648;28;20084;-88
2023/07/23 02:07:29;;;;;;;9.77;6.72;;;;;;;14.76;100.00;100303.09;4997824;28;20129;-87
2023/07/23 02:09:55;;;;;;;8.48;6.63;;;;;;;14.76;100.00;100298.69;4995589;28;20080;-85
2023/07/23 02:12:22;;;;;;;10.02;7.03;;;;;;;14.75;100.00;100298.75;5008301;28;20125;-84
2023/07/23 02:14:49;;;;;;;7.68;6.88;;;;;;;14.75;100.00;100296.97;4995529;28;20044;-85
2023/07/23 02:17:15;;;;;;;10.10;7.10;;;;;;;14.75;100.00;100301.41;4983092;28;20984;-88
2023/07/23 02:19:43;;;;;;;7.18;5.78;;;;;;;14.74;100.00;100303.16;5006955;28;20033;-84
2023/07/23 02:22:10;;;;;;;9.60;7.65;;;;;;;14.72;100.00;100289.19;5005861;28;20540;-84
2023/07/23 02:24:37;;;;;;;8.70;6.10;;;;;;;14.67;100.00;100288.47;5009317;28;20050;-85
2023/07/23 02:27:04;;;;;;;7.68;5.72;;;;;;;14.68;100.00;100287.56;5010868;28;20140;-85
2023/07/23 02:29:31;;;;;;;10.40;6.57;;;;;;;14.65;100.00;100287.63;5007992;28;20062;-87
2023/07/23 02:31:57;;;;;;;8.07;6.07;;;;;;;14.60;100.00;100276.34;5010397;28;20076;-85
2023/07/23 02:34:24;;;;;;;10.13;6.28;;;;;;;14.63;100.00;100277.13;5008141;28;20052;-85
2023/07/23 02:36:51;;;;;;;8.95;5.75;;;;;;;14.67;100.00;100275.28;5012234;28;20528;-87
2023/07/23 02:39:17;;;;;;;7.00;6.15;;;;;;;14.66;100.00;100271.78;4999729;28;20465;-85
2023/07/23 02:41:44;;;;;;;7.35;6.40;;;;;;;14.64;100.00;100267.47;4990173;28;20046;-85
2023/07/23 02:44:12;;;;;;;7.20;6.30;;;;;;;14.65;100.00;100266.56;5011896;28;20754;-85
2023/07/23 02:46:39;;;;;;;8.43;6.30;;;;;;;14.65;100.00;100264.81;5007791;28;20069;-85
2023/07/23 02:49:06;;;;;;;8.75;6.72;;;;;;;14.65;100.00;100267.44;5009580;28;20121;-85
2023/07/23 02:51:32;;;;;;;6.82;5.13;;;;;;;14.64;100.00;100265.72;4996839;28;20100;-85
2023/07/23 02:54:03;;;;;;;11.55;6.82;;;;;;;14.65;100.00;100259.53;5007523;28;20029;-87
2023/07/23 02:56:30;;;;;;;9.93;5.63;;;;;;;14.65;100.00;100253.38;5006829;28;20132;-86
2023/07/23 02:58:57;;;;;;;8.98;6.57;;;;;;;14.63;100.00;100257.81;4995403;28;20097;-86
2023/07/23 03:01:23;;;;;;;8.25;6.00;;;;;;;14.63;100.00;100263.94;4992162;28;20165;-85
2023/07/23 03:03:50;;;;;;;7.65;6.43;;;;;;;14.65;100.00;100250.75;5007689;28;20116;-84
2023/07/23 03:06:17;;;;;;;9.13;6.38;;;;;;;14.67;100.00;100262.13;5010616;28;20034;-87
2023/07/23 03:08:44;;;;;;;7.13;5.72;;;;;;;14.65;100.00;100256.03;5006658;28;20489;-87
2023/07/23 03:11:12;;;;;;;13.35;7.75;;;;;;;14.61;100.00;100257.00;5008811;28;20041;-86
2023/07/23 03:13:40;;;;;;;6.60;5.78;;;;;;;14.43;100.00;100246.16;5007277;28;20709;-87
2023/07/23 03:16:06;;;;;;;10.70;6.15;;;;;;;14.25;100.00;100244.06;4990457;28;21091;-86
2023/07/23 03:18:33;;;;;;;9.43;6.72;;;;;;;14.11;100.00;100240.09;5007994;28;20955;-86
2023/07/23 03:21:00;;;;;;;13.90;7.63;;;;;;;14.02;100.00;100235.97;5003620;28;21000;-86
2023/07/23 03:23:27;;;;;;;13.27;7.57;;;;;;;14.00;100.00;100229.03;5006026;28;20053;-86
2023/07/23 03:25:54;;;;;;;9.35;7.30;;;;;;;13.97;100.00;100232.59;5004998;28;20044;-87
2023/07/23 03:28:21;;;;;;;12.93;7.63;;;;;;;13.94;100.00;100232.72;5001369;28;20129;-88
2023/07/23 03:30:47;;;;;;;15.18;8.93;;;;;;;13.95;100.00;100229.19;4990532;28;20043;-88
2023/07/23 03:33:14;;;;;;;10.35;7.78;;;;;;;13.97;100.00;100227.34;4993346;28;20054;-87
2023/07/23 03:35:41;;;;;;;13.73;8.27;;;;;;;13.98;100.00;100220.34;4988495;28;20095;-85
2023/07/23 03:38:07;;;;;;;13.43;8.27;;;;;;;14.01;100.00;100214.97;4990979;28;20470;-87
2023/07/23 03:40:34;;;;;;;12.38;8.50;;;;;;;14.03;100.00;100219.28;5006592;28;20146;-86
2023/07/23 03:43:01;;;;;;;16.45;9.13;;;;;;;14.09;100.00;100220.84;5008443;28;20049;-86
2023/07/23 03:45:27;;;;;;;13.60;7.45;;;;;;;14.11;100.00;100210.28;5008133;28;20037;-85
2023/07/23 03:47:54;;;;;;;10.55;7.40;;;;;;;14.11;100.00;100207.66;5010792;28;20090;-88
2023/07/23 03:50:21;;;;;;;9.95;7.30;;;;;;;14.12;100.00;100212.00;5004297;28;20035;-85
2023/07/23 03:52:48;;;;;;;10.65;7.18;;;;;;;14.14;100.00;100202.28;5007359;28;20049;-86
2023/07/23 03:55:14;;;;;;;9.40;6.63;;;;;;;14.16;100.00;100203.97;5008428;28;20056;-86
2023/07/23 03:57:41;;;;;;;11.07;7.32;;;;;;;14.19;100.00;100197.75;4991544;28;20050;-84
2023/07/23 04:00:09;;;;;;;11.57;7.45;;;;;;;14.21;100.00;100188.91;4992401;28;20069;-86
2023/07/23 04:02:36;;;;;;;10.23;7.22;;;;;;;14.25;100.00;100197.56;5009125;28;20076;-86
2023/07/23 04:05:03;;;;;;;11.77;6.68;;;;;;;14.31;100.00;100193.88;5006992;28;20084;-86
2023/07/23 04:07:30;;;;;;;10.93;6.18;;;;;;;14.32;100.00;100185.06;5004799;28;20054;-86
2023/07/23 04:09:57;;;;;;;10.77;6.38;;;;;;;14.34;100.00;100186.75;5009039;28;20091;-86
2023/07/23 04:12:24;;;;;;;8.75;6.45;;;;;;;14.37;100.00;100191.03;4994505;28;20057;-87
2023/07/23 04:14:51;;;;;;;10.43;7.00;;;;;;;14.36;100.00;100181.41;5005765;28;20056;-86
2023/07/23 04:17:17;;;;;;;10.30;6.90;;;;;;;14.39;100.00;100181.31;5005303;28;20042;-88
2023/07/23 04:19:44;;;;;;;12.32;6.82;;;;;;;14.40;100.00;100180.41;5008409;28;20060;-86
2023/07/23 04:22:11;;;;;;;9.70;6.88;;;;;;;14.43;100.00;100180.31;4975446;28;20038;-86
2023/07/23 04:24:38;;;;;;;7.10;5.78;;;;;;;14.46;100.00;100179.38;5004748;28;20061;-87
2023/07/23 04:27:06;;;;;;;10.85;7.15;;;;;;;14.49;100.00;100173.97;5006675;28;20068;-86
2023/07/23 04:29:32;;;;;;;7.07;5.93;;;;;;;14.50;100.00;100157.28;5011115;28;20045;-86
2023/07/23 04:31:59;;;;;;;12.43;6.40;;;;;;;14.52;100.00;100150.16;5022715;28;20132;-86
2023/07/23 04:34:25;;;;;;;8.65;6.88;;;;;;;14.52;100.00;100150.16;5040059;28;20037;-84
2023/07/23 04:36:52;;;;;;;9.75;6.50;;;;;;;14.55;100.00;100152.72;5006162;28;20052;-88
2023/07/23 04:39:19;;;;;;;8.57;6.20;;;;;;;14.58;100.00;100160.50;5033893;28;20041;-86
2023/07/23 04:41:46;;;;;;;11.20;5.80;;;;;;;14.59;100.00;100154.34;5006892;28;20042;-86
2023/07/23 04:44:13;;;;;;;13.68;6.70;;;;;;;14.61;100.00;100154.28;4995020;28;20088;-85
2023/07/23 04:46:40;;;;;;;7.82;6.55;;;;;;;14.62;100.00;100156.00;5009800;28;20064;-86
2023/07/23 04:49:06;;;;;;;10.27;7.20;;;;;;;14.63;100.00;100161.22;4991777;28;20069;-89
2023/07/23 04:51:33;;;;;;;8.73;6.43;;;;;;;14.67;100.00;100162.00;4998023;28;20046;-86
2023/07/23 04:53:59;;;;;;;8.35;6.38;;;;;;;14.69;100.00;100157.53;5009706;28;20036;-87
2023/07/23 04:56:26;;;;;;;9.95;6.53;;;;;;;14.72;100.00;100154.81;5017840;28;20060;-87
2023/07/23 04:58:53;;;;;;;8.73;5.38;;;;;;;14.75;100.00;100152.06;5018628;28;20038;-85
2023/07/23 05:01:19;;;;;;;13.20;7.05;;;;;;;14.75;100.00;100138.03;5014377;28;20053;-88
2023/07/23 05:03:46;;;;;;;9.40;7.40;;;;;;;14.79;100.00;100139.66;5012571;28;20048;-86
2023/07/23 05:06:13;;;;;;;8.05;6.68;;;;;;;14.82;100.00;100144.81;4994319;28;20397;-88
2023/07/23 05:08:39;;;;;;;10.23;6.38;;;;;;;14.84;100.00;100143.00;5004502;28;20075;-85
2023/07/23 05:11:06;;;;;;;7.60;6.18;;;;;;;14.88;100.00;100142.81;5020120;28;20041;-89
2023/07/23 05:13:35;;;;;;;9.75;6.60;;;;;;;14.93;100.00;100133.88;5018322;28;20033;-85
2023/07/23 05:16:03;;;;;;;8.98;6.95;;;;;;;14.93;100.00;100136.50;5021318;28;20035;-84
2023/07/23 05:18:31;;;;;;;9.32;6.95;;;;;;;14.95;100.00;100134.69;5016530;28;20689;-85
2023/07/23 05:20:57;;;;;;;11.18;6.95;;;;;;;14.94;100.00;100141.75;5006931;28;20145;-83
2023/07/23 05:23:24;;;;;;;15.43;7.82;;;;;;;14.89;100.00;100131.34;5005396;28;20103;-84
2023/07/23 05:25:51;;;;;;;9.68;6.90;;;;;;;14.89;100.00;100128.72;5004809;28;20132;-85
2023/07/23 05:28:17;;;;;;;9.07;6.28;;;;;;;14.92;100.00;100122.47;5021716;28;20116;-84
2023/07/23 05:30:44;;;;;;;10.38;5.88;;;;;;;14.91;100.00;100120.75;5027025;28;20036;-85
2023/07/23 05:33:10;;;;;;;11.48;6.72;;;;;;;14.93;100.00;100120.69;5004133;28;20469;-84
2023/07/23 05:35:39;;;;;;;10.48;5.72;;;;;;;14.91;100.00;100120.75;5001511;28;20101;-85
2023/07/23 05:38:06;;;;;;;9.13;6.50;;;;;;;14.93;100.00;100116.31;4982597;28;20211;-86
2023/07/23 05:40:36;;;;;;;8.68;5.50;;;;;;;14.97;100.00;100110.00;4986148;28;20052;-84
2023/07/23 05:43:16;;;;;;;15.00;6.68;;;;;;;15.04;100.00;100113.28;5002275;28;20065;-87
2023/07/23 05:45:43;;;;;;;9.27;6.05;;;;;;;15.14;100.00;100106.75;5006011;28;20065;-87
2023/07/23 05:48:09;;;;;;;6.10;5.40;;;;;;;15.23;100.00;100097.66;5021329;28;20041;-86
2023/07/23 05:50:36;;;;;;;12.18;6.60;;;;;;;15.31;100.00;100095.56;4991454;28;20050;-85
2023/07/23 05:53:03;;;;;;;8.05;5.13;;;;;;;15.42;100.00;100089.03;4998469;28;20042;-88
2023/07/23 05:55:30;;;;;;;10.77;6.28;;;;;;;15.49;100.00;100083.47;4998981;28;20061;-86
2023/07/23 05:57:56;;;;;;;6.95;5.47;;;;;;;15.59;100.00;100085.75;4985301;28;20045;-86
2023/07/23 06:00:23;;;;;;;8.07;5.65;;;;;;;15.72;100.00;100079.06;4984923;28;20393;-86
2023/07/23 06:02:49;;;;;;;6.72;5.03;;;;;;;15.85;100.00;100075.06;4998315;28;20041;-85
2023/07/23 06:05:16;;;;;;;7.00;5.60;;;;;;;15.99;100.00;100071.84;4999013;28;20038;-86
2023/07/23 06:07:43;;;;;;;8.48;6.03;;;;;;;16.18;100.00;100065.84;4998327;28;20068;-86
2023/07/23 06:10:10;;;;;;;6.47;4.95;;;;;;;16.29;100.00;100058.31;5012242;28;20065;-85
2023/07/23 06:12:36;;;;;;;8.15;5.90;;;;;;;16.43;100.00;100055.09;4999001;28;20046;-84
2023/07/23 06:15:03;;;;;;;7.18;4.90;;;;;;;16.51;100.00;100057.41;5003060;28;20073;-85
2023/07/23 06:17:30;;;;;;;7.72;5.10;;;;;;;16.57;98.83;100048.34;4971881;28;20088;-85
2023/07/23 06:19:57;;;;;;;6.45;4.88;;;;;;;16.67;98.50;100054.94;4992481;28;20065;-86
2023/07/23 06:22:23;;;;;;;6.53;4.50;;;;;;;16.69;97.95;100053.94;5007394;28;20069;-85
2023/07/23 06:24:50;;;;;;;6.38;4.40;;;;;;;16.73;97.56;100051.19;4998044;28;20042;-86
2023/07/23 06:27:16;;;;;;;6.75;4.35;;;;;;;16.83;98.20;100053.34;4996115;28;20046;-86
2023/07/23 06:29:43;;;;;;;5.45;4.47;;;;;;;16.95;96.25;100049.31;4996088;28;20129;-88
2023/07/23 06:32:10;;;;;;;12.10;4.68;;;;;;;17.07;95.95;100047.91;4996677;28;20068;-89
2023/07/23 06:34:37;;;;;;;8.95;4.30;;;;;;;17.19;94.67;100043.84;5011466;28;20025;-88
2023/07/23 06:37:04;;;;;;;6.32;4.70;;;;;;;17.29;94.85;100046.91;4988778;28;20042;-84
2023/07/23 06:39:30;;;;;;;6.07;4.10;;;;;;;17.39;93.85;100042.03;5013306;28;20041;-85
2023/07/23 06:41:57;;;;;;;7.32;4.88;;;;;;;17.44;93.26;100040.91;4993799;28;20133;-86
2023/07/23 06:44:24;;;;;;;5.22;4.38;;;;;;;17.56;92.98;100033.28;5013497;28;20033;-87
2023/07/23 06:46:50;;;;;;;6.22;3.65;;;;;;;17.66;92.85;100032.81;5006516;28;20048;-86
2023/07/23 06:49:17;;;;;;;5.95;4.28;;;;;;;17.78;91.53;100035.75;5013618;28;20455;-85
2023/07/23 06:51:44;;;;;;;7.43;4.47;;;;;;;17.96;90.50;100031.38;5013657;28;20704;-85
2023/07/23 06:54:10;;;;;;;4.53;4.10;;;;;;;18.08;90.49;100021.97;5013598;28;20464;-85
2023/07/23 06:56:37;;;;;;;4.25;3.83;;;;;;;18.17;88.96;100021.50;5004543;28;20485;-87
2023/07/23 06:59:04;;;;;;;4.85;4.35;;;;;;;18.30;87.36;100013.78;5014868;28;20095;-87
2023/07/23 07:01:31;;;;;;;4.93;3.63;;;;;;;18.38;88.08;100013.38;5016776;28;20716;-87
2023/07/23 07:03:58;;;;;;;5.78;4.32;;;;;;;18.49;86.24;100008.41;5013704;28;20038;-86
2023/07/23 07:06:25;;;;;;;3.40;3.08;;;;;;;18.59;85.15;100014.06;4996402;28;20462;-85
2023/07/23 07:08:51;;;;;;;6.30;3.78;;;;;;;18.65;85.61;100006.63;5007352;28;20069;-87
2023/07/23 07:11:18;;;;;;;7.38;4.13;;;;;;;18.77;85.17;100002.50;5003353;28;20113;-86
2023/07/23 07:13:44;;;;;;;4.40;3.53;;;;;;;18.93;84.84;100001.69;4991076;28;20142;-86
2023/07/23 07:16:11;;;;;;;7.18;4.03;;;;;;;19.14;84.12;100002.31;5011922;28;20057;-89
2023/07/23 07:18:38;;;;;;;4.57;3.50;;;;;;;19.32;83.26;100008.38;4996411;28;20682;-87
2023/07/23 07:21:04;;;;;;;4.57;3.30;;;;;;;19.54;81.96;100000.06;5017953;28;20461;-86
2023/07/23 07:23:32;;;;;;;5.22;3.35;;;;;;;19.74;80.94;99998.94;5000004;28;20045;-86
2023/07/23 07:26:00;;;;;;;6.15;3.80;;;;;;;19.81;79.87;100000.31;5011686;28;20033;-84
2023/07/23 07:28:29;;;;;;;6.10;4.13;;;;;;;19.73;77.91;99999.88;4993675;28;20046;-85
2023/07/23 07:31:00;;;;;;;5.28;3.10;;;;;;;19.62;79.43;99999.63;5012773;28;20049;-86
2023/07/23 07:33:28;;;;;;;5.97;3.25;;;;;;;19.52;79.41;100004.63;5012263;28;20042;-86
2023/07/23 07:36:00;;;;;;;4.40;3.45;;;;;;;19.50;80.31;100003.84;5010730;28;20473;-85
2023/07/23 07:38:28;;;;;;;5.95;3.53;;;;;;;19.50;79.90;99998.53;5010846;28;20037;-85
2023/07/23 07:40:57;;;;;;;3.85;3.42;;;;;;;19.55;79.58;99995.63;5034389;28;20037;-85
2023/07/23 07:43:25;;;;;;;4.45;3.88;;;;;;;19.61;79.75;100005.91;5024746;28;20042;-85
2023/07/23 07:45:54;;;;;;;6.47;3.58;;;;;;;19.75;78.84;100003.31;5000513;28;20034;-86
2023/07/23 07:48:21;;;;;;;4.82;3.20;;;;;;;19.84;78.22;99999.28;5009357;28;20070;-87
2023/07/23 07:51:07;;;;;;;3.80;3.50;;;;;;;19.96;77.10;99995.91;5011462;28;20702;-86
2023/07/23 07:53:36;;;;;;;5.07;3.80;;;;;;;20.00;77.68;99992.13;4999438;28;20120;-85
2023/07/23 07:56:03;;;;;;;4.20;3.03;;;;;;;20.05;77.31;99991.00;4996670;28;20563;-86
2023/07/23 07:58:30;;;;;;;3.50;3.05;;;;;;;20.16;77.21;99989.41;5001996;28;20029;-87
2023/07/23 08:00:59;;;;;;;4.85;4.13;;;;;;;20.18;77.43;99989.34;5006354;28;20061;-85
2023/07/23 08:03:28;;;;;;;7.13;3.50;;;;;;;20.20;77.20;99992.75;5012312;28;20129;-89
2023/07/23 08:05:56;;;;;;;4.07;3.67;;;;;;;20.26;77.31;99988.84;5026816;28;20091;-82
2023/07/23 08:08:33;;;;;;;3.50;3.20;;;;;;;20.44;76.66;99985.13;5026704;28;20091;-85
2023/07/23 08:11:02;;;;;;;3.38;2.90;;;;;;;20.57;76.94;99979.91;5004763;28;20047;-85
2023/07/23 08:13:29;;;;;;;5.22;3.17;;;;;;;20.66;76.40;99981.13;4997598;28;20042;-84
2023/07/23 08:15:57;;;;;;;3.70;3.40;;;;;;;20.84;76.49;99973.00;5009680;28;20037;-84
2023/07/23 08:18:24;;;;;;;4.28;3.38;;;;;;;20.98;73.78;99978.28;5000398;28;20041;-86
2023/07/23 08:20:52;;;;;;;5.53;3.50;;;;;;;21.18;72.85;99971.69;5017443;28;20069;-85
2023/07/23 08:23:19;;;;;;;3.83;3.38;;;;;;;21.43;70.14;99978.09;5002275;28;20053;-84
2023/07/23 08:25:52;;;;;;;4.22;3.35;;;;;;;21.48;68.98;99975.97;5008630;28;20064;-84
2023/07/23 08:28:23;;;;;;;4.97;3.10;;;;;;;21.64;67.62;99973.19;5021471;28;20067;-86
2023/07/23 08:30:51;;;;;;;5.82;3.20;;;;;;;21.94;67.82;99978.28;5001019;28;20148;-85
2023/07/23 08:33:19;;;;;;;5.70;3.58;;;;;;;22.19;65.19;99981.94;5017466;28;20104;-84
2023/07/23 08:35:46;;;;;;;3.92;3.25;;;;;;;22.12;65.40;99970.00;4994678;28;20052;-85
2023/07/23 08:38:13;;;;;;;4.03;3.15;;;;;;;22.15;65.90;99975.13;5000168;28;20052;-87
2023/07/23 08:40:44;;;;;;;3.60;3.28;;;;;;;22.14;65.65;99976.91;5007323;28;20038;-85
2023/07/23 08:43:34;;;;;;;4.20;3.40;;;;;;;22.08;64.73;99974.66;4994759;28;20070;-84
2023/07/23 08:46:24;;;;;;;3.40;2.95;;;;;;;22.12;64.36;99964.66;5000143;28;20057;-85
2023/07/23 08:48:56;;;;;;;3.30;3.00;;;;;;;22.03;63.56;99974.16;5013563;28;20045;-85
2023/07/23 08:51:32;;;;;;;4.82;2.83;;;;;;;22.06;63.78;99973.06;5012809;28;20407;-85
2023/07/23 08:54:00;;;;;;;3.58;2.92;;;;;;;22.19;63.52;99965.09;4997209;28;20499;-84
2023/07/23 08:56:26;;;;;;;4.50;3.00;;;;;;;22.26;63.11;99966.38;5001163;28;20038;-84
2023/07/23 08:58:53;;;;;;;3.47;3.22;;;;;;;22.38;61.69;99967.38;5014526;28;20049;-87
2023/07/23 09:01:20;;;;;;;2.88;2.67;;;;;;;22.40;62.10;99965.47;5007801;28;20044;-84
2023/07/23 09:03:47;;;;;;;3.08;2.83;;;;;;;22.39;62.29;99969.09;4999434;28;20107;-84
2023/07/23 09:06:14;;;;;;;3.40;3.00;;;;;;;22.45;61.87;99968.69;4999040;28;20045;-83
2023/07/23 09:08:41;;;;;;;6.82;2.90;;;;;;;22.35;62.66;99975.56;5016905;28;20121;-84
2023/07/23 09:11:10;;;;;;;5.25;3.00;;;;;;;22.27;61.97;99976.09;4988083;28;20041;-84
2023/07/23 09:13:38;;;;;;;3.00;2.70;;;;;;;22.14;62.18;99978.75;5003085;28;20137;-85
2023/07/23 09:16:05;;;;;;;3.25;2.85;;;;;;;22.05;62.33;99974.03;5012666;28;20108;-87
2023/07/23 09:18:33;;;;;;;3.15;2.95;;;;;;;22.03;62.68;99974.16;5026489;28;20095;-86
2023/07/23 09:21:01;;;;;;;3.90;2.78;;;;;;;22.12;62.21;99970.00;4995762;28;20128;-85
2023/07/23 09:23:28;;;;;;;4.78;3.08;;;;;;;22.16;61.84;99967.97;5011282;28;20061;-87
2023/07/23 09:25:58;;;;;;;3.85;3.30;;;;;;;22.05;61.17;99969.56;5012268;28;20092;-84
2023/07/23 09:28:25;;;;;;;3.50;2.90;;;;;;;22.06;60.15;99962.41;5020627;28;20052;-84
2023/07/23 09:31:00;;;;;;;3.72;3.00;;;;;;;22.16;60.10;99973.31;5021979;28;20063;-85
2023/07/23 09:33:36;;;;;;;6.72;3.33;;;;;;;22.28;59.31;99977.78;5012904;28;20129;-88
2023/07/23 09:36:05;;;;;;;4.32;3.03;;;;;;;22.34;58.83;99972.03;5002508;28;20095;-85
2023/07/23 09:38:33;;;;;;;4.28;2.92;;;;;;;22.49;57.47;99959.50;5015214;28;20065;-85
2023/07/23 09:41:00;;;;;;;3.75;2.72;;;;;;;22.71;58.01;99964.16;4998952;28;20045;-85
2023/07/23 09:43:28;;;;;;;2.85;2.60;;;;;;;22.93;56.97;99966.16;5032681;28;20473;-85
2023/07/23 09:45:54;;;;;;;2.97;2.58;;;;;;;23.03;55.99;99966.34;5007945;28;20056;-85
2023/07/23 09:48:21;;;;;;;3.88;3.03;;;;;;;22.99;55.56;99958.66;5011756;28;20044;-85
2023/07/23 09:50:53;;;;;;;3.85;2.13;;;;;;;23.01;53.03;99951.38;5019068;28;20124;-85
2023/07/23 09:53:20;;;;;;;3.28;2.95;;;;;;;23.06;52.57;99954.56;5018762;28;20140;-84
2023/07/23 09:55:48;;;;;;;2.55;2.08;;;;;;;23.02;52.20;99953.09;5007779;28;20034;-85
2023/07/23 09:58:18;;;;;;;3.10;2.75;;;;;;;23.12;52.68;99946.13;5018618;28;20034;-87
2023/07/23 10:00:46;;;;;;;2.47;2.28;;;;;;;23.23;50.74;99948.03;5035972;28;20072;-86
2023/07/23 10:03:15;;;;;;;3.42;2.15;;;;;;;23.33;48.80;99946.41;5019125;28;20475;-87
2023/07/23 10:05:42;;;;;;;2.80;2.58;;;;;;;23.25;47.17;99938.09;5003269;28;20045;-85
2023/07/23 10:08:10;;;;;;;3.22;1.88;;;;;;;23.30;47.11;99951.97;5023475;28;20322;-86
2023/07/23 10:10:36;;;;;;;3.50;2.80;;;;;;;23.43;46.85;99950.09;5035209;28;20068;-86
2023/07/23 10:13:03;;;;;;;2.42;2.20;;;;;;;23.68;45.89;99948.25;5015050;28;20056;-86
2023/07/23 10:15:30;;;;;;;2.80;1.95;;;;;;;23.81;44.80;99942.00;5013526;28;20109;-86
2023/07/23 10:18:00;;;;;;;4.32;2.58;;;;;;;24.13;43.96;99944.03;5025065;28;20057;-85
2023/07/23 10:20:31;;;;;;;3.20;1.92;;;;;;;24.46;43.34;99948.59;5008327;28;20084;-85
2023/07/23 10:22:58;;;;;;;3.42;2.30;;;;;;;24.85;41.26;99957.13;5002126;28;20045;-85
2023/07/23 10:25:31;;;;;;;6.28;2.15;;;;;;;24.75;40.85;99956.16;4984555;28;20088;-85
2023/07/23 10:28:10;;;;;;;2.28;1.83;;;;;;;24.63;40.38;99960.69;5018713;28;20037;-85
2023/07/23 10:30:37;;;;;;;2.17;2.08;;;;;;;24.21;40.83;99960.34;5012664;28;20041;-86
2023/07/23 10:33:10;;;;;;;2.58;2.08;;;;;;;23.72;41.01;99964.91;4999186;28;20049;-85
2023/07/23 10:35:54;;;;;;;2.30;2.20;;;;;;;23.40;41.96;99968.16;5014398;28;20042;-88
2023/07/23 10:38:39;;;;;;;2.15;1.90;;;;;;;23.17;42.95;99975.22;5006795;28;20123;-84
2023/07/23 10:41:07;;;;;;;2.03;1.60;;;;;;;23.07;43.40;99978.50;5018377;28;20131;-84
2023/07/23 10:43:48;;;;;;;3.03;1.80;;;;;;;23.02;43.39;99972.63;5000909;28;20052;-86
2023/07/23 10:46:19;;;;;;;3.55;2.00;;;;;;;22.76;44.35;99972.69;5018095;28;20041;-84
2023/07/23 10:48:55;;;;;;;2.08;1.98;;;;;;;22.67;44.25;99972.47;5007549;28;20038;-85
2023/07/23 10:51:24;;;;;;;3.50;2.20;;;;;;;22.66;44.86;99973.44;5002815;28;20045;-85
2023/07/23 10:54:05;;;;;;;3.30;2.40;;;;;;;22.67;44.53;99967.16;5018833;28;20403;-84
2023/07/23 10:56:41;;;;;;;2.60;2.40;;;;;;;22.52;44.80;99963.75;5011382;28;20065;-86
2023/07/23 10:59:10;;;;;;;3.22;2.22;;;;;;;22.41;45.25;99944.03;5034028;28;20040;-87
2023/07/23 11:01:40;;;;;;;3.83;2.17;;;;;;;22.46;45.53;99967.69;5017352;28;20095;-85
2023/07/23 11:04:17;;;;;;;3.97;1.88;;;;;;;22.47;45.43;99966.72;5017643;28;20033;-85
2023/07/23 11:07:04;;;;;;;7.13;2.35;;;;;;;22.35;45.88;99973.75;5017811;28;20050;-85
2023/07/23 11:09:33;;;;;;;2.78;2.35;;;;;;;22.25;46.28;99978.88;5017575;28;20060;-85
2023/07/23 11:12:01;;;;;;;2.58;1.67;;;;;;;22.24;46.29;99982.50;5006452;28;20061;-84
2023/07/23 11:14:32;;;;;;;2.22;1.85;;;;;;;22.22;46.19;99972.91;4998765;28;20057;-86
2023/07/23 11:17:02;;;;;;;1.63;1.50;;;;;;;22.20;46.46;99975.66;5005974;28;20046;-86
2023/07/23 11:19:31;;;;;;;4.03;2.05;;;;;;;22.16;46.33;99971.47;5009323;28;20064;-84
2023/07/23 11:22:03;;;;;;;1.83;1.70;;;;;;;22.11;46.77;99976.28;4990181;28;20039;-93
2023/07/23 11:24:32;;;;;;;3.30;1.88;;;;;;;22.10;47.33;99971.91;4995895;28;20065;-85
2023/07/23 11:27:17;;;;;;;6.65;2.20;;;;;;;22.04;47.61;99981.16;5019238;28;20037;-87